createdAt,value
2023-03-07T00:00:15.996Z,9.35
2023-03-07T00:02:44.870Z,8.45
2023-03-07T00:05:14.948Z,7.95
2023-03-07T00:07:43.651Z,7.90
2023-03-07T00:10:12.968Z,7.38
2023-03-07T00:12:43.013Z,8.15
2023-03-07T00:15:12.090Z,7.55
2023-03-07T00:17:40.945Z,7.32
2023-03-07T00:20:14.373Z,7.57
2023-03-07T00:22:44.169Z,6.80
2023-03-07T00:25:12.725Z,6.70
2023-03-07T00:27:43.171Z,6.15
2023-03-07T00:30:13.075Z,6.50
2023-03-07T00:32:41.990Z,6.30
2023-03-07T00:35:10.825Z,6.85
2023-03-07T00:37:40.302Z,5.18
2023-03-07T00:40:10.810Z,5.50
2023-03-07T00:42:39.406Z,5.70
2023-03-07T00:45:10.939Z,5.70
2023-03-07T00:47:39.568Z,5.60
2023-03-07T00:50:08.906Z,5.22
2023-03-07T00:52:37.665Z,5.18
2023-03-07T00:55:07.682Z,5.30
2023-03-07T00:57:36.436Z,4.90
2023-03-07T01:00:06.326Z,4.57
2023-03-07T01:02:36.332Z,4.80
2023-03-07T01:05:06.245Z,4.32
2023-03-07T01:07:34.805Z,4.65
2023-03-07T01:10:03.466Z,4.10
2023-03-07T01:12:32.143Z,3.83
2023-03-07T01:15:00.894Z,4.38
2023-03-07T01:17:29.568Z,4.15
2023-03-07T01:19:59.558Z,3.88
2023-03-07T01:22:28.164Z,3.78
2023-03-07T01:24:56.833Z,3.60
2023-03-07T01:27:25.501Z,3.45
2023-03-07T01:29:54.742Z,3.53
2023-03-07T01:32:23.299Z,3.53
2023-03-07T01:34:51.951Z,3.15
2023-03-07T01:37:22.589Z,2.88
2023-03-07T01:39:52.588Z,2.92
2023-03-07T01:42:21.909Z,2.88
2023-03-07T01:45:01.423Z,3.40
2023-03-07T01:47:40.243Z,2.33
2023-03-07T01:50:13.267Z,2.75
2023-03-07T01:52:47.081Z,2.17
2023-03-07T01:55:19.114Z,1.98
2023-03-07T01:57:53.220Z,1.88
2023-03-07T02:00:28.961Z,2.00
2023-03-07T02:03:07.738Z,2.03
2023-03-07T02:05:42.085Z,2.20
2023-03-07T02:08:14.677Z,2.08
2023-03-07T02:10:44.150Z,2.10
2023-03-07T02:13:13.038Z,1.98
2023-03-07T02:15:42.583Z,2.00
2023-03-07T02:18:15.030Z,2.05
2023-03-07T02:20:49.156Z,2.42
2023-03-07T02:23:25.026Z,2.25
2023-03-07T02:26:01.581Z,2.47
2023-03-07T02:28:32.148Z,2.63
2023-03-07T02:31:03.482Z,2.45
2023-03-07T02:33:35.249Z,2.38
2023-03-07T02:36:11.167Z,2.50
2023-03-07T02:38:47.254Z,2.75
2023-03-07T02:41:20.755Z,2.70
2023-03-07T02:43:50.713Z,2.95
2023-03-07T02:46:19.956Z,2.97
2023-03-07T02:48:48.941Z,3.33
2023-03-07T02:51:17.983Z,2.90
2023-03-07T02:53:47.530Z,3.08
2023-03-07T02:56:16.326Z,2.85
2023-03-07T02:58:44.899Z,3.03
2023-03-07T03:01:14.920Z,3.90
2023-03-07T03:03:44.617Z,3.72
2023-03-07T03:06:14.632Z,3.40
2023-03-07T03:08:43.308Z,3.35
2023-03-07T03:11:11.870Z,3.63
2023-03-07T03:13:40.496Z,3.55
2023-03-07T03:16:09.312Z,3.45
2023-03-07T03:18:39.991Z,3.60
2023-03-07T03:21:10.336Z,3.28
2023-03-07T03:23:39.211Z,3.88
2023-03-07T03:26:11.491Z,3.72
2023-03-07T03:28:41.143Z,4.60
2023-03-07T03:31:11.901Z,3.92
2023-03-07T03:33:43.986Z,4.53
2023-03-07T03:36:15.249Z,4.65
2023-03-07T03:38:45.530Z,4.50
2023-03-07T03:41:16.945Z,4.75
2023-03-07T03:43:47.112Z,4.90
2023-03-07T03:46:16.810Z,4.97
2023-03-07T03:48:51.462Z,5.10
2023-03-07T03:51:20.848Z,5.00
2023-03-07T03:53:49.955Z,4.90
2023-03-07T03:56:20.132Z,5.45
2023-03-07T03:58:50.172Z,5.35
2023-03-07T04:01:20.958Z,5.80
2023-03-07T04:03:52.439Z,5.25
2023-03-07T04:06:23.291Z,5.50
2023-03-07T04:08:52.573Z,5.55
2023-03-07T04:11:21.737Z,6.05
2023-03-07T04:13:50.752Z,4.80
2023-03-07T04:16:22.266Z,6.32
2023-03-07T04:18:52.802Z,6.03
2023-03-07T04:21:22.814Z,6.15
2023-03-07T04:23:55.752Z,5.88
2023-03-07T04:26:25.942Z,5.57
2023-03-07T04:28:54.537Z,5.93
2023-03-07T04:31:41.477Z,5.60
2023-03-07T04:34:12.897Z,6.75
2023-03-07T04:36:41.714Z,5.97
2023-03-07T04:39:10.523Z,6.28
2023-03-07T04:41:39.131Z,6.53
2023-03-07T04:44:28.200Z,7.22
2023-03-07T04:46:56.836Z,7.13
2023-03-07T04:49:27.034Z,7.00
2023-03-07T04:51:56.279Z,6.95
2023-03-07T04:54:25.047Z,7.07
2023-03-07T04:56:54.178Z,7.70
2023-03-07T04:59:22.843Z,7.70
2023-03-07T05:01:51.444Z,7.15
2023-03-07T05:04:20.435Z,8.00
2023-03-07T05:06:50.492Z,6.55
2023-03-07T05:09:19.357Z,8.25
2023-03-07T05:11:48.464Z,7.88
2023-03-07T05:14:17.358Z,7.40
2023-03-07T05:16:45.990Z,7.95
2023-03-07T05:19:14.970Z,7.85
2023-03-07T05:21:44.165Z,7.60
2023-03-07T05:24:15.431Z,8.05
2023-03-07T05:26:44.215Z,7.65
2023-03-07T05:29:12.841Z,8.35
2023-03-07T05:31:41.408Z,8.10
2023-03-07T05:34:11.215Z,8.93
2023-03-07T05:36:40.979Z,8.52
2023-03-07T05:39:11.246Z,8.90
2023-03-07T05:41:41.115Z,9.02
2023-03-07T05:44:10.024Z,8.30
2023-03-07T05:46:38.850Z,8.20
2023-03-07T05:49:07.526Z,8.00
2023-03-07T05:51:36.184Z,8.45
2023-03-07T05:54:05.098Z,8.52
2023-03-07T05:56:33.874Z,8.23
2023-03-07T05:59:04.018Z,7.63
2023-03-07T06:01:32.716Z,8.90
2023-03-07T06:04:01.546Z,8.13
2023-03-07T06:06:30.344Z,8.45
2023-03-07T06:08:59.017Z,8.98
2023-03-07T06:11:27.605Z,8.10
2023-03-07T06:13:56.252Z,8.80
2023-03-07T06:16:26.409Z,7.78
2023-03-07T06:18:55.830Z,8.25
2023-03-07T06:21:24.519Z,7.88
2023-03-07T06:23:53.055Z,8.40
2023-03-07T06:26:24.062Z,8.18
2023-03-07T06:28:55.170Z,8.45
2023-03-07T06:31:27.736Z,7.47
2023-03-07T06:33:57.753Z,8.65
2023-03-07T06:36:27.559Z,8.20
2023-03-07T06:39:00.039Z,7.53
2023-03-07T06:41:28.681Z,7.80
2023-03-07T06:43:59.889Z,8.43
2023-03-07T06:46:33.278Z,7.82
2023-03-07T06:49:06.939Z,7.65
2023-03-07T06:51:37.853Z,7.10
2023-03-07T06:54:07.762Z,7.32
2023-03-07T06:56:36.429Z,7.53
2023-03-07T06:59:05.290Z,8.13
2023-03-07T07:01:35.931Z,7.70
2023-03-07T07:04:05.435Z,7.03
2023-03-07T07:06:33.967Z,7.32
2023-03-07T07:09:02.514Z,7.00
2023-03-07T07:11:35.871Z,7.35
2023-03-07T07:14:06.078Z,7.63
2023-03-07T07:16:36.412Z,7.20
2023-03-07T07:19:05.803Z,6.97
2023-03-07T07:21:36.405Z,6.75
2023-03-07T07:24:05.813Z,6.75
2023-03-07T07:26:34.703Z,6.05
2023-03-07T07:29:03.509Z,6.57
2023-03-07T07:31:32.217Z,6.57
2023-03-07T07:34:02.390Z,6.18
2023-03-07T07:36:34.348Z,6.63
2023-03-07T07:39:05.149Z,7.00
2023-03-07T07:41:35.164Z,7.13
2023-03-07T07:44:04.139Z,7.05
2023-03-07T07:46:39.729Z,6.65
2023-03-07T07:49:11.333Z,7.25
2023-03-07T07:51:41.073Z,6.72
2023-03-07T07:54:09.938Z,7.20
2023-03-07T07:56:38.694Z,6.85
2023-03-07T07:59:07.336Z,7.47
2023-03-07T08:01:36.131Z,6.22
2023-03-07T08:04:04.906Z,6.70
2023-03-07T08:06:34.867Z,6.80
2023-03-07T08:09:05.423Z,7.13
2023-03-07T08:11:34.055Z,7.50
2023-03-07T08:14:03.403Z,7.07
2023-03-07T08:16:32.149Z,6.20
2023-03-07T08:19:01.535Z,6.05
2023-03-07T08:21:30.409Z,6.80
2023-03-07T08:24:00.321Z,6.70
2023-03-07T08:26:29.093Z,7.07
2023-03-07T08:28:59.091Z,6.90
2023-03-07T08:31:27.637Z,7.53
2023-03-07T08:33:56.180Z,7.20
2023-03-07T08:36:25.361Z,7.00
2023-03-07T08:38:53.871Z,7.40
2023-03-07T08:41:24.360Z,6.78
2023-03-07T08:43:54.043Z,6.82
2023-03-07T08:46:23.498Z,6.90
2023-03-07T08:48:52.117Z,6.38
2023-03-07T08:51:20.801Z,6.82
2023-03-07T08:53:49.603Z,6.68
2023-03-07T08:56:19.422Z,5.93
2023-03-07T08:58:49.405Z,6.13
2023-03-07T09:01:17.920Z,6.53
2023-03-07T09:03:46.490Z,5.88
2023-03-07T09:06:18.094Z,6.18
2023-03-07T09:08:47.430Z,6.40
2023-03-07T09:11:16.658Z,5.75
2023-03-07T09:13:51.933Z,5.60
2023-03-07T09:16:23.498Z,5.25
2023-03-07T09:18:52.063Z,5.93
2023-03-07T09:21:20.794Z,6.18
2023-03-07T09:23:49.456Z,5.20
2023-03-07T09:26:18.297Z,5.40
2023-03-07T09:28:46.827Z,5.57
2023-03-07T09:31:16.488Z,5.60
2023-03-07T09:33:47.177Z,5.38
2023-03-07T09:36:17.260Z,5.30
2023-03-07T09:38:46.129Z,4.97
2023-03-07T09:41:33.404Z,4.43
2023-03-07T09:44:07.636Z,4.70
2023-03-07T09:47:31.802Z,4.68
2023-03-07T09:50:09.738Z,5.13
2023-03-07T09:52:42.029Z,4.50
2023-03-07T09:55:16.493Z,4.15
2023-03-07T09:57:50.562Z,4.22
2023-03-07T10:00:23.558Z,4.63
2023-03-07T10:02:56.971Z,4.72
2023-03-07T10:05:33.692Z,4.03
2023-03-07T10:08:05.086Z,4.72
2023-03-07T10:10:39.733Z,3.70
2023-03-07T10:13:20.938Z,4.18
2023-03-07T10:15:53.285Z,3.95
2023-03-07T10:18:32.241Z,4.13
2023-03-07T10:21:08.643Z,4.00
2023-03-07T10:23:45.483Z,3.90
2023-03-07T10:26:19.056Z,3.47
2023-03-07T10:28:49.115Z,4.35
2023-03-07T10:31:23.182Z,3.67
2023-03-07T10:33:54.948Z,3.85
2023-03-07T10:36:35.629Z,3.92
2023-03-07T10:39:12.016Z,4.40
2023-03-07T10:41:40.721Z,3.80
2023-03-07T10:44:14.874Z,3.65
2023-03-07T10:46:55.420Z,3.40
2023-03-07T10:49:28.527Z,3.90
2023-03-07T10:52:02.178Z,3.75
2023-03-07T10:54:32.534Z,3.85
2023-03-07T10:57:07.292Z,3.90
2023-03-07T10:59:36.649Z,3.28
2023-03-07T11:02:31.221Z,3.50
2023-03-07T11:05:00.090Z,3.40
2023-03-07T11:07:32.518Z,4.05
2023-03-07T11:10:02.672Z,3.88
2023-03-07T11:12:32.003Z,3.80
2023-03-07T11:15:12.045Z,3.63
2023-03-07T11:17:43.368Z,3.58
2023-03-07T11:20:21.872Z,3.38
2023-03-07T11:23:01.644Z,3.60
2023-03-07T11:25:37.451Z,4.00
2023-03-07T11:28:23.795Z,3.70
2023-03-07T11:30:54.307Z,3.30
2023-03-07T11:33:29.141Z,3.55
2023-03-07T11:36:02.855Z,3.58
2023-03-07T11:38:48.721Z,3.80
2023-03-07T11:41:24.601Z,3.85
2023-03-07T11:44:05.670Z,3.47
2023-03-07T11:46:44.143Z,3.60
2023-03-07T11:49:29.954Z,3.30
2023-03-07T11:52:10.740Z,3.85
2023-03-07T11:54:46.695Z,3.40
2023-03-07T11:57:27.921Z,4.07
2023-03-07T12:00:22.938Z,3.40
2023-03-07T12:03:06.314Z,3.25
2023-03-07T12:05:43.481Z,3.45
2023-03-07T12:08:33.874Z,3.50
2023-03-07T12:11:17.374Z,3.60
2023-03-07T12:13:56.994Z,3.95
2023-03-07T12:16:36.292Z,4.15
2023-03-07T12:19:19.887Z,3.83
2023-03-07T12:22:12.980Z,3.60
2023-03-07T12:24:47.487Z,3.72
2023-03-07T12:27:26.316Z,3.83
2023-03-07T12:30:00.590Z,4.13
2023-03-07T12:32:30.542Z,4.50
2023-03-07T12:35:03.194Z,4.10
2023-03-07T12:37:39.090Z,3.80
2023-03-07T12:40:16.216Z,4.07
2023-03-07T12:42:51.944Z,4.50
2023-03-07T12:45:25.438Z,3.92
2023-03-07T12:48:04.563Z,3.80
2023-03-07T12:50:41.309Z,4.75
2023-03-07T12:53:22.300Z,4.72
2023-03-07T12:55:56.920Z,4.78
2023-03-07T12:58:38.122Z,4.50
2023-03-07T13:01:13.964Z,4.85
2023-03-07T13:03:50.519Z,5.60
2023-03-07T13:06:21.473Z,4.70
2023-03-07T13:08:52.629Z,4.93
2023-03-07T13:11:23.629Z,4.25
2023-03-07T13:13:56.950Z,4.60
2023-03-07T13:16:40.677Z,4.97
2023-03-07T13:20:03.497Z,4.70
2023-03-07T13:22:58.696Z,5.25
2023-03-07T13:25:56.886Z,4.57
2023-03-07T13:28:46.658Z,5.18
2023-03-07T13:31:30.408Z,4.82
2023-03-07T13:34:40.503Z,4.95
2023-03-07T13:37:49.072Z,4.90
2023-03-07T13:40:30.459Z,4.63
2023-03-07T13:42:59.210Z,4.68
2023-03-07T13:45:50.491Z,4.88
2023-03-07T13:48:52.590Z,4.63
2023-03-07T13:51:23.113Z,4.88
2023-03-07T13:53:54.370Z,4.38
2023-03-07T13:56:29.047Z,4.20
2023-03-07T13:59:01.208Z,4.72
2023-03-07T14:01:33.810Z,4.53
2023-03-07T14:04:09.092Z,4.55
2023-03-07T14:06:43.209Z,4.07
2023-03-07T14:09:16.796Z,4.55
2023-03-07T14:11:52.698Z,4.10
2023-03-07T14:14:55.784Z,4.28
2023-03-07T14:17:41.281Z,3.92
2023-03-07T14:20:19.968Z,4.65
2023-03-07T14:23:03.360Z,4.10
2023-03-07T14:25:33.799Z,4.68
2023-03-07T14:28:19.343Z,4.82
2023-03-07T14:30:55.964Z,4.25
2023-03-07T14:33:31.615Z,4.22
2023-03-07T14:36:00.752Z,4.45
2023-03-07T14:38:30.693Z,4.70
2023-03-07T14:41:11.516Z,5.70
2023-03-07T14:43:56.572Z,5.82
2023-03-07T14:46:34.511Z,5.95
2023-03-07T14:49:11.691Z,6.60
2023-03-07T14:51:42.404Z,6.53
2023-03-07T14:54:17.857Z,5.75
2023-03-07T14:56:51.219Z,5.50
2023-03-07T14:59:28.688Z,5.70
2023-03-07T15:01:58.699Z,5.38
2023-03-07T15:04:29.973Z,4.60
2023-03-07T15:07:01.306Z,4.15
2023-03-07T15:09:32.453Z,4.03
2023-03-07T15:12:04.405Z,3.85
2023-03-07T15:14:41.168Z,3.78
2023-03-07T15:17:15.852Z,3.10
2023-03-07T15:19:48.266Z,3.40
2023-03-07T15:22:22.460Z,4.93
2023-03-07T15:24:53.528Z,5.30
2023-03-07T15:27:26.316Z,5.20
2023-03-07T15:29:55.962Z,4.60
2023-03-07T15:32:36.382Z,4.30
2023-03-07T15:35:16.171Z,4.40
2023-03-07T15:37:55.776Z,5.03
2023-03-07T15:40:28.319Z,4.95
2023-03-07T15:42:58.438Z,4.45
2023-03-07T15:45:31.535Z,4.22
2023-03-07T15:48:03.321Z,3.78
2023-03-07T15:50:31.963Z,4.13
2023-03-07T15:53:06.442Z,4.18
2023-03-07T15:55:39.152Z,3.75
2023-03-07T15:58:14.894Z,3.83
2023-03-07T16:00:43.659Z,4.05
2023-03-07T16:03:24.935Z,4.15
2023-03-07T16:05:54.290Z,3.65
2023-03-07T16:08:22.979Z,4.35
2023-03-07T16:10:58.656Z,3.95
2023-03-07T16:13:30.607Z,3.85
2023-03-07T16:16:01.286Z,4.57
2023-03-07T16:18:32.044Z,5.45
2023-03-07T16:21:00.916Z,5.72
2023-03-07T16:23:31.401Z,6.22
2023-03-07T16:26:05.416Z,6.03
2023-03-07T16:28:34.544Z,6.65
2023-03-07T16:31:03.184Z,6.85
2023-03-07T16:33:31.961Z,6.22
2023-03-07T16:36:00.569Z,6.43
2023-03-07T16:38:29.339Z,5.18
2023-03-07T16:40:58.750Z,4.90
2023-03-07T16:43:39.180Z,4.88
2023-03-07T16:46:13.043Z,5.03
2023-03-07T16:48:42.071Z,4.45
2023-03-07T16:51:16.813Z,4.82
2023-03-07T16:53:45.769Z,4.47
2023-03-07T16:56:25.739Z,3.90
2023-03-07T16:58:55.839Z,3.78
2023-03-07T17:01:27.465Z,3.50
2023-03-07T17:03:57.335Z,3.45
2023-03-07T17:06:38.387Z,2.83
2023-03-07T17:09:09.643Z,3.83
2023-03-07T17:11:40.568Z,3.63
2023-03-07T17:14:12.303Z,3.67
2023-03-07T17:16:44.936Z,3.70
2023-03-07T17:19:25.034Z,3.40
2023-03-07T17:21:53.660Z,4.00
2023-03-07T17:24:22.656Z,4.20
2023-03-07T17:26:53.510Z,3.95
2023-03-07T17:29:28.002Z,4.03
2023-03-07T17:31:56.599Z,4.25
2023-03-07T17:34:27.010Z,5.03
2023-03-07T17:36:55.611Z,5.25
2023-03-07T17:39:24.370Z,6.38
2023-03-07T17:41:52.995Z,6.05
2023-03-07T17:44:22.905Z,6.05
2023-03-07T17:46:52.658Z,5.82
2023-03-07T17:49:21.620Z,5.80
2023-03-07T17:51:51.987Z,6.20
2023-03-07T17:54:20.765Z,6.47
2023-03-07T17:56:49.350Z,6.30
2023-03-07T17:59:18.331Z,6.13
2023-03-07T18:01:48.377Z,6.40
2023-03-07T18:04:16.936Z,6.88
2023-03-07T18:06:45.429Z,6.72
2023-03-07T18:09:15.350Z,6.97
2023-03-07T18:11:43.923Z,6.45
2023-03-07T18:14:12.767Z,6.60
2023-03-07T18:16:43.768Z,7.10
2023-03-07T18:19:25.443Z,6.63
2023-03-07T18:21:55.235Z,7.72
2023-03-07T18:24:26.318Z,7.53
2023-03-07T18:26:56.952Z,8.35
2023-03-07T18:29:28.971Z,7.95
2023-03-07T18:31:57.591Z,7.70
2023-03-07T18:34:27.673Z,10.15
2023-03-07T18:36:56.610Z,8.63
2023-03-07T18:39:25.386Z,8.82
2023-03-07T18:41:54.056Z,9.40
2023-03-07T18:44:22.628Z,9.18
2023-03-07T18:46:51.268Z,8.35
2023-03-07T18:49:19.880Z,7.75
2023-03-07T18:51:49.848Z,7.50
2023-03-07T18:54:18.495Z,8.45
2023-03-07T18:56:48.014Z,8.10
2023-03-07T18:59:17.396Z,7.90
2023-03-07T19:01:50.148Z,8.65
2023-03-07T19:04:19.311Z,7.75
2023-03-07T19:06:49.234Z,7.70
2023-03-07T19:09:19.324Z,8.02
2023-03-07T19:11:48.452Z,7.38
2023-03-07T19:14:17.110Z,7.57
2023-03-07T19:16:45.760Z,7.38
2023-03-07T19:19:14.634Z,7.43
2023-03-07T19:21:43.198Z,7.10
2023-03-07T19:24:13.193Z,6.78
2023-03-07T19:26:42.806Z,7.00
2023-03-07T19:29:13.057Z,6.03
2023-03-07T19:31:43.707Z,6.60
2023-03-07T19:34:12.554Z,6.78
2023-03-07T19:36:42.434Z,6.35
2023-03-07T19:39:20.006Z,6.22
2023-03-07T19:41:49.099Z,6.45
2023-03-07T19:44:18.216Z,6.60
2023-03-07T19:46:47.278Z,6.22
2023-03-07T19:49:16.479Z,6.50
2023-03-07T19:51:45.448Z,7.00
2023-03-07T19:54:15.998Z,6.43
2023-03-07T19:56:45.634Z,6.68
2023-03-07T19:59:14.685Z,6.68
2023-03-07T20:01:43.530Z,6.68
2023-03-07T20:04:12.653Z,7.78
2023-03-07T20:06:42.359Z,7.47
2023-03-07T20:09:12.883Z,7.35
2023-03-07T20:11:43.829Z,8.15
2023-03-07T20:14:13.202Z,7.28
2023-03-07T20:16:42.413Z,8.82
2023-03-07T20:19:11.310Z,8.85
2023-03-07T20:21:40.239Z,7.80
2023-03-07T20:24:09.418Z,8.75
2023-03-07T20:26:39.462Z,8.40
2023-03-07T20:29:10.412Z,8.93
2023-03-07T20:31:40.239Z,8.90
2023-03-07T20:34:09.141Z,8.35
2023-03-07T20:36:38.890Z,8.63
2023-03-07T20:39:13.057Z,8.65
2023-03-07T20:41:42.884Z,8.73
2023-03-07T20:44:15.436Z,9.48
2023-03-07T20:46:44.161Z,8.65
2023-03-07T20:49:13.750Z,9.88
2023-03-07T20:51:43.426Z,9.85
2023-03-07T20:54:13.564Z,9.73
2023-03-07T20:56:42.900Z,10.35
2023-03-07T20:59:15.393Z,10.93
2023-03-07T21:01:44.537Z,9.63
2023-03-07T21:04:17.912Z,11.93
2023-03-07T21:06:47.776Z,10.65
2023-03-07T21:09:18.623Z,10.85
2023-03-07T21:11:48.990Z,10.70
2023-03-07T21:14:20.132Z,9.73
2023-03-07T21:16:49.040Z,9.90
2023-03-07T21:19:17.564Z,9.35
2023-03-07T21:21:46.347Z,9.77
2023-03-07T21:24:16.071Z,10.38
2023-03-07T21:26:44.854Z,10.63
2023-03-07T21:29:14.084Z,11.20
2023-03-07T21:31:44.293Z,9.18
2023-03-07T21:34:15.030Z,10.25
2023-03-07T21:36:43.904Z,10.95
2023-03-07T21:39:12.622Z,11.82
2023-03-07T21:41:41.240Z,11.73
2023-03-07T21:44:10.752Z,11.38
2023-03-07T21:46:39.288Z,10.57
2023-03-07T21:49:09.212Z,11.73
2023-03-07T21:51:37.775Z,12.48
2023-03-07T21:54:06.656Z,11.80
2023-03-07T21:56:35.287Z,11.85
2023-03-07T21:59:03.875Z,10.95
2023-03-07T22:01:32.527Z,12.10
2023-03-07T22:04:01.230Z,11.35
2023-03-07T22:06:31.355Z,11.93
2023-03-07T22:09:00.439Z,11.43
2023-03-07T22:11:29.032Z,10.20
2023-03-07T22:13:57.611Z,9.68
2023-03-07T22:16:26.250Z,8.38
2023-03-07T22:18:56.410Z,8.65
2023-03-07T22:21:26.554Z,6.80
2023-03-07T22:24:00.411Z,6.03
2023-03-07T22:26:29.984Z,5.88
2023-03-07T22:28:59.260Z,6.10
2023-03-07T22:31:27.985Z,5.28
2023-03-07T22:33:56.675Z,5.32
2023-03-07T22:36:25.210Z,5.53
2023-03-07T22:38:56.368Z,5.10
2023-03-07T22:41:25.967Z,5.18
2023-03-07T22:43:54.749Z,4.97
2023-03-07T22:46:23.526Z,5.80
2023-03-07T22:48:56.263Z,5.55
2023-03-07T22:51:25.975Z,5.72
2023-03-07T22:53:57.261Z,5.63
2023-03-07T22:56:27.531Z,5.32
2023-03-07T22:58:56.524Z,4.95
2023-03-07T23:01:27.409Z,6.00
2023-03-07T23:03:57.712Z,6.57
2023-03-07T23:06:29.565Z,6.65
2023-03-07T23:09:00.596Z,6.90
2023-03-07T23:11:30.631Z,6.38
2023-03-07T23:13:59.408Z,5.93
2023-03-07T23:16:29.692Z,6.65
2023-03-07T23:19:00.275Z,6.70
2023-03-07T23:21:31.573Z,7.43
2023-03-07T23:24:03.369Z,7.20
2023-03-07T23:26:33.802Z,7.03
2023-03-07T23:29:03.134Z,8.38
2023-03-07T23:31:33.920Z,6.50
2023-03-07T23:34:04.653Z,6.80
2023-03-07T23:36:33.815Z,6.95
2023-03-07T23:39:04.278Z,7.85
2023-03-07T23:41:32.772Z,8.18
2023-03-07T23:44:02.433Z,7.65
2023-03-07T23:46:32.049Z,7.43
2023-03-07T23:49:01.049Z,8.18
2023-03-07T23:51:29.590Z,8.10
2023-03-07T23:53:58.343Z,7.85
2023-03-07T23:56:28.279Z,8.20
2023-03-07T23:58:56.973Z,7.90
